sensor_id;sensor_type;location;lat;lon;timestamp;pressure;altitude;pressure_sealevel;temperature;humidity
23953;BME280;12163;49.316;6.092;2022-09-14T00:00:33;98433.50;;;21.74;70.05
23953;BME280;12163;49.316;6.092;2022-09-14T00:03:01;98433.50;;;21.70;70.21
23953;BME280;12163;49.316;6.092;2022-09-14T00:05:28;98448.00;;;21.67;70.39
23953;BME280;12163;49.316;6.092;2022-09-14T00:07:55;98449.94;;;21.67;70.48
23953;BME280;12163;49.316;6.092;2022-09-14T00:10:21;98466.41;;;21.67;70.83
23953;BME280;12163;49.316;6.092;2022-09-14T00:12:48;98466.78;;;21.62;71.48
23953;BME280;12163;49.316;6.092;2022-09-14T00:15:15;98457.31;;;21.56;72.55
23953;BME280;12163;49.316;6.092;2022-09-14T00:17:41;98443.53;;;21.45;73.80
23953;BME280;12163;49.316;6.092;2022-09-14T00:20:08;98440.28;;;21.29;74.04
23953;BME280;12163;49.316;6.092;2022-09-14T00:22:35;98431.94;;;21.15;74.71
23953;BME280;12163;49.316;6.092;2022-09-14T00:25:02;98447.13;;;21.06;75.54
23953;BME280;12163;49.316;6.092;2022-09-14T00:27:29;98438.09;;;21.02;75.97
23953;BME280;12163;49.316;6.092;2022-09-14T00:29:55;98440.44;;;21.00;76.72
23953;BME280;12163;49.316;6.092;2022-09-14T00:32:22;98439.22;;;20.97;76.86
23953;BME280;12163;49.316;6.092;2022-09-14T00:34:48;98440.00;;;20.94;76.71
23953;BME280;12163;49.316;6.092;2022-09-14T00:37:15;98443.47;;;20.88;76.30
23953;BME280;12163;49.316;6.092;2022-09-14T00:39:41;98446.94;;;20.85;76.66
23953;BME280;12163;49.316;6.092;2022-09-14T00:42:14;98455.19;;;20.85;76.62
23953;BME280;12163;49.316;6.092;2022-09-14T00:47:07;98446.91;;;20.81;76.80
23953;BME280;12163;49.316;6.092;2022-09-14T00:49:37;98447.63;;;20.75;77.35
23953;BME280;12163;49.316;6.092;2022-09-14T00:52:18;98434.69;;;20.72;77.64
23953;BME280;12163;49.316;6.092;2022-09-14T00:54:54;98441.75;;;20.73;77.93
23953;BME280;12163;49.316;6.092;2022-09-14T00:57:22;98441.34;;;20.71;77.88
23953;BME280;12163;49.316;6.092;2022-09-14T00:59:51;98444.44;;;20.69;78.05
23953;BME280;12163;49.316;6.092;2022-09-14T01:02:20;98443.66;;;20.69;78.24
23953;BME280;12163;49.316;6.092;2022-09-14T01:04:48;98438.19;;;20.69;78.44
23953;BME280;12163;49.316;6.092;2022-09-14T01:20:55;98429.44;;;20.56;78.99
23953;BME280;12163;49.316;6.092;2022-09-14T01:23:46;98424.69;;;20.50;78.99
23953;BME280;12163;49.316;6.092;2022-09-14T01:26:36;98429.72;;;20.45;78.75
23953;BME280;12163;49.316;6.092;2022-09-14T01:31:46;98426.56;;;20.43;79.15
23953;BME280;12163;49.316;6.092;2022-09-14T01:34:30;98423.03;;;20.42;78.83
23953;BME280;12163;49.316;6.092;2022-09-14T01:37:19;98423.78;;;20.39;78.82
23953;BME280;12163;49.316;6.092;2022-09-14T01:39:54;98419.13;;;20.43;79.04
23953;BME280;12163;49.316;6.092;2022-09-14T01:42:24;98412.84;;;20.43;79.17
23953;BME280;12163;49.316;6.092;2022-09-14T01:44:59;98414.38;;;20.40;79.51
23953;BME280;12163;49.316;6.092;2022-09-14T01:47:39;98414.31;;;20.33;79.79
23953;BME280;12163;49.316;6.092;2022-09-14T01:50:21;98409.59;;;20.30;79.80
23953;BME280;12163;49.316;6.092;2022-09-14T01:53:11;98407.97;;;20.26;79.46
23953;BME280;12163;49.316;6.092;2022-09-14T01:58:26;98407.97;;;20.26;79.79
23953;BME280;12163;49.316;6.092;2022-09-14T02:00:59;98407.97;;;20.26;79.82
23953;BME280;12163;49.316;6.092;2022-09-14T02:03:32;98426.38;;;20.25;79.97
23953;BME280;12163;49.316;6.092;2022-09-14T02:08:34;98434.53;;;20.22;80.12
23953;BME280;12163;49.316;6.092;2022-09-14T02:11:01;98439.25;;;20.21;80.10
23953;BME280;12163;49.316;6.092;2022-09-14T02:13:28;98446.25;;;20.19;80.35
23953;BME280;12163;49.316;6.092;2022-09-14T02:15:55;98439.97;;;20.18;80.56
23953;BME280;12163;49.316;6.092;2022-09-14T02:18:21;98439.97;;;20.18;80.90
23953;BME280;12163;49.316;6.092;2022-09-14T02:21:04;98435.25;;;20.15;81.05
23953;BME280;12163;49.316;6.092;2022-09-14T02:23:34;98430.19;;;20.17;81.09
23953;BME280;12163;49.316;6.092;2022-09-14T02:26:01;98430.19;;;20.17;81.32
23953;BME280;12163;49.316;6.092;2022-09-14T02:28:27;98430.59;;;20.19;81.34
23953;BME280;12163;49.316;6.092;2022-09-14T02:31:20;98440.03;;;20.22;81.38
23953;BME280;12163;49.316;6.092;2022-09-14T02:34:10;98429.06;;;20.22;81.12
23953;BME280;12163;49.316;6.092;2022-09-14T02:36:48;98436.41;;;20.14;80.66
23953;BME280;12163;49.316;6.092;2022-09-14T02:50:29;98428.75;;;19.97;80.46
23953;BME280;12163;49.316;6.092;2022-09-14T02:53:12;98427.97;;;19.97;80.72
23953;BME280;12163;49.316;6.092;2022-09-14T02:55:44;98413.13;;;19.98;80.66
23953;BME280;12163;49.316;6.092;2022-09-14T02:58:13;98422.53;;;20.00;80.75
23953;BME280;12163;49.316;6.092;2022-09-14T03:00:48;98426.44;;;19.99;80.87
23953;BME280;12163;49.316;6.092;2022-09-14T03:03:18;98412.34;;;20.01;80.75
23953;BME280;12163;49.316;6.092;2022-09-14T03:05:45;98416.25;;;20.00;80.75
23953;BME280;12163;49.316;6.092;2022-09-14T03:08:13;98423.25;;;19.97;80.64
23953;BME280;12163;49.316;6.092;2022-09-14T03:10:43;98417.38;;;19.95;81.00
23953;BME280;12163;49.316;6.092;2022-09-14T03:13:10;98422.84;;;19.95;80.78
23953;BME280;12163;49.316;6.092;2022-09-14T03:15:37;98418.94;;;19.96;81.06
23953;BME280;12163;49.316;6.092;2022-09-14T03:18:05;98412.31;;;19.97;81.23
23953;BME280;12163;49.316;6.092;2022-09-14T03:20:37;98397.50;;;19.98;81.18
23953;BME280;12163;49.316;6.092;2022-09-14T03:23:04;98389.28;;;19.98;81.10
23953;BME280;12163;49.316;6.092;2022-09-14T03:25:38;98394.66;;;19.91;80.83
23953;BME280;12163;49.316;6.092;2022-09-14T03:28:06;98394.63;;;19.88;80.90
23953;BME280;12163;49.316;6.092;2022-09-14T03:30:33;98391.03;;;19.84;81.28
23953;BME280;12163;49.316;6.092;2022-09-14T03:33:00;98371.84;;;19.80;81.17
23953;BME280;12163;49.316;6.092;2022-09-14T03:35:28;98368.59;;;19.71;80.96
23953;BME280;12163;49.316;6.092;2022-09-14T03:37:57;98368.88;;;19.63;81.84
23953;BME280;12163;49.316;6.092;2022-09-14T03:40:25;98371.53;;;19.56;81.84
23953;BME280;12163;49.316;6.092;2022-09-14T03:42:53;98382.84;;;19.54;82.10
23953;BME280;12163;49.316;6.092;2022-09-14T03:45:20;98380.13;;;19.54;82.40
23953;BME280;12163;49.316;6.092;2022-09-14T03:47:47;98359.41;;;19.53;82.46
23953;BME280;12163;49.316;6.092;2022-09-14T03:50:15;98348.44;;;19.53;82.42
23953;BME280;12163;49.316;6.092;2022-09-14T03:52:42;98355.06;;;19.52;82.27
23953;BME280;12163;49.316;6.092;2022-09-14T03:55:09;98355.06;;;19.52;82.09
23953;BME280;12163;49.316;6.092;2022-09-14T03:57:36;98354.69;;;19.54;82.43
23953;BME280;12163;49.316;6.092;2022-09-14T04:00:05;98369.53;;;19.53;81.88
23953;BME280;12163;49.316;6.092;2022-09-14T04:02:32;98365.59;;;19.50;82.06
23953;BME280;12163;49.316;6.092;2022-09-14T04:04:58;98362.50;;;19.52;82.63
23953;BME280;12163;49.316;6.092;2022-09-14T04:07:25;98363.25;;;19.52;81.98
23953;BME280;12163;49.316;6.092;2022-09-14T04:09:51;98354.22;;;19.48;81.99
23953;BME280;12163;49.316;6.092;2022-09-14T04:12:18;98360.03;;;19.43;82.19
23953;BME280;12163;49.316;6.092;2022-09-14T04:14:45;98356.88;;;19.41;82.41
23953;BME280;12163;49.316;6.092;2022-09-14T04:17:11;98356.06;;;19.41;82.30
23953;BME280;12163;49.316;6.092;2022-09-14T04:19:38;98363.09;;;19.38;82.09
23953;BME280;12163;49.316;6.092;2022-09-14T04:22:06;98369.31;;;19.35;82.36
23953;BME280;12163;49.316;6.092;2022-09-14T04:24:33;98367.25;;;19.29;82.82
23953;BME280;12163;49.316;6.092;2022-09-14T04:26:59;98366.78;;;19.23;82.57
23953;BME280;12163;49.316;6.092;2022-09-14T04:29:26;98372.94;;;19.17;82.68
23953;BME280;12163;49.316;6.092;2022-09-14T04:31:55;98370.56;;;19.15;83.25
23953;BME280;12163;49.316;6.092;2022-09-14T04:34:22;98367.00;;;19.11;83.57
23953;BME280;12163;49.316;6.092;2022-09-14T04:36:49;98374.03;;;19.12;83.47
23953;BME280;12163;49.316;6.092;2022-09-14T04:39:15;98371.31;;;19.12;83.73
23953;BME280;12163;49.316;6.092;2022-09-14T04:41:42;98364.25;;;19.11;83.06
23953;BME280;12163;49.316;6.092;2022-09-14T04:44:09;98367.34;;;19.10;83.15
23953;BME280;12163;49.316;6.092;2022-09-14T04:46:36;98361.09;;;19.09;83.20
23953;BME280;12163;49.316;6.092;2022-09-14T04:49:11;98364.25;;;19.11;83.14
23953;BME280;12163;49.316;6.092;2022-09-14T04:51:38;98369.31;;;19.09;83.64
23953;BME280;12163;49.316;6.092;2022-09-14T04:54:05;98370.88;;;19.10;83.93
23953;BME280;12163;49.316;6.092;2022-09-14T04:56:34;98367.41;;;19.13;83.93
23953;BME280;12163;49.316;6.092;2022-09-14T04:59:02;98369.03;;;19.18;83.67
23953;BME280;12163;49.316;6.092;2022-09-14T05:01:32;98363.09;;;19.38;83.67
23953;BME280;12163;49.316;6.092;2022-09-14T05:03:59;98364.00;;;19.79;82.14
23953;BME280;12163;49.316;6.092;2022-09-14T05:06:29;98360.88;;;20.10;80.22
23953;BME280;12163;49.316;6.092;2022-09-14T05:08:56;98370.47;;;20.33;78.85
23953;BME280;12163;49.316;6.092;2022-09-14T05:11:27;98376.97;;;20.54;77.51
23953;BME280;12163;49.316;6.092;2022-09-14T05:13:55;98384.16;;;20.73;76.28
23953;BME280;12163;49.316;6.092;2022-09-14T05:18:53;98377.72;;;20.95;74.86
23953;BME280;12163;49.316;6.092;2022-09-14T05:21:21;98377.38;;;21.07;74.29
23953;BME280;12163;49.316;6.092;2022-09-14T05:23:55;98381.41;;;21.20;73.73
23953;BME280;12163;49.316;6.092;2022-09-14T05:26:25;98383.84;;;21.32;73.33
23953;BME280;12163;49.316;6.092;2022-09-14T05:28:55;98390.53;;;21.41;72.83
23953;BME280;12163;49.316;6.092;2022-09-14T05:31:23;98383.94;;;21.49;72.25
23953;BME280;12163;49.316;6.092;2022-09-14T05:33:50;98377.69;;;21.56;72.16
23953;BME280;12163;49.316;6.092;2022-09-14T05:36:18;98376.19;;;21.62;72.01
23953;BME280;12163;49.316;6.092;2022-09-14T05:38:45;98386.03;;;21.70;71.60
23953;BME280;12163;49.316;6.092;2022-09-14T05:41:13;98385.25;;;21.73;71.31
23953;BME280;12163;49.316;6.092;2022-09-14T05:43:40;98383.31;;;21.77;71.35
23953;BME280;12163;49.316;6.092;2022-09-14T05:46:10;98375.47;;;21.79;70.99
23953;BME280;12163;49.316;6.092;2022-09-14T05:48:38;98370.00;;;21.79;71.39
23953;BME280;12163;49.316;6.092;2022-09-14T05:51:09;98374.69;;;21.78;71.06
23953;BME280;12163;49.316;6.092;2022-09-14T05:53:36;98375.09;;;21.77;70.81
23953;BME280;12163;49.316;6.092;2022-09-14T05:56:08;98378.59;;;21.77;71.32
23953;BME280;12163;49.316;6.092;2022-09-14T05:58:35;98366.84;;;21.77;71.02
23953;BME280;12163;49.316;6.092;2022-09-14T06:01:14;98365.28;;;21.76;71.27
23953;BME280;12163;49.316;6.092;2022-09-14T06:03:42;98353.88;;;21.74;71.23
23953;BME280;12163;49.316;6.092;2022-09-14T06:06:10;98354.28;;;21.76;71.54
23953;BME280;12163;49.316;6.092;2022-09-14T06:08:38;98357.03;;;21.79;71.20
23953;BME280;12163;49.316;6.092;2022-09-14T06:11:05;98362.16;;;21.81;71.20
23953;BME280;12163;49.316;6.092;2022-09-14T06:13:33;98352.34;;;21.87;70.91
23953;BME280;12163;49.316;6.092;2022-09-14T06:16:08;98359.81;;;21.90;71.23
23953;BME280;12163;49.316;6.092;2022-09-14T06:18:36;98360.59;;;21.94;70.90
23953;BME280;12163;49.316;6.092;2022-09-14T06:21:04;98358.66;;;21.94;70.69
23953;BME280;12163;49.316;6.092;2022-09-14T06:23:31;98349.63;;;21.97;70.53
23953;BME280;12163;49.316;6.092;2022-09-14T06:26:00;98370.44;;;21.98;70.41
23953;BME280;12163;49.316;6.092;2022-09-14T06:28:28;98366.50;;;21.96;70.55
23953;BME280;12163;49.316;6.092;2022-09-14T06:30:56;98365.31;;;21.97;70.45
23953;BME280;12163;49.316;6.092;2022-09-14T06:33:23;98360.59;;;21.94;70.77
23953;BME280;12163;49.316;6.092;2022-09-14T06:36:10;98343.34;;;21.90;70.90
23953;BME280;12163;49.316;6.092;2022-09-14T06:38:38;98348.09;;;22.00;70.89
23953;BME280;12163;49.316;6.092;2022-09-14T06:41:07;98350.06;;;22.10;70.54
23953;BME280;12163;49.316;6.092;2022-09-14T06:43:37;98357.53;;;22.16;70.17
23953;BME280;12163;49.316;6.092;2022-09-14T06:46:21;98360.69;;;22.18;70.12
23953;BME280;12163;49.316;6.092;2022-09-14T06:48:54;98363.84;;;22.24;70.19
23953;BME280;12163;49.316;6.092;2022-09-14T06:51:30;98362.25;;;22.19;69.95
23953;BME280;12163;49.316;6.092;2022-09-14T06:53:59;98356.38;;;22.21;69.90
23953;BME280;12163;49.316;6.092;2022-09-14T06:56:37;98354.78;;;22.16;69.94
23953;BME280;12163;49.316;6.092;2022-09-14T06:59:05;98338.28;;;22.06;70.52
23953;BME280;12163;49.316;6.092;2022-09-14T07:01:33;98340.22;;;21.98;70.96
23953;BME280;12163;49.316;6.092;2022-09-14T07:03:59;98340.19;;;21.88;70.86
23953;BME280;12163;49.316;6.092;2022-09-14T07:06:29;98335.47;;;21.78;72.07
23953;BME280;12163;49.316;6.092;2022-09-14T07:08:56;98336.66;;;21.84;72.05
23953;BME280;12163;49.316;6.092;2022-09-14T07:11:25;98349.63;;;21.94;71.42
23953;BME280;12163;49.316;6.092;2022-09-14T07:13:54;98356.31;;;22.00;71.34
23953;BME280;12163;49.316;6.092;2022-09-14T07:16:24;98348.09;;;22.14;71.32
23953;BME280;12163;49.316;6.092;2022-09-14T07:18:56;98351.66;;;22.28;70.85
23953;BME280;12163;49.316;6.092;2022-09-14T07:21:23;98346.59;;;22.37;70.53
23953;BME280;12163;49.316;6.092;2022-09-14T07:23:51;98339.56;;;22.46;70.16
23953;BME280;12163;49.316;6.092;2022-09-14T07:26:23;98338.00;;;22.52;70.02
23953;BME280;12163;49.316;6.092;2022-09-14T07:28:53;98349.00;;;22.45;69.85
23953;BME280;12163;49.316;6.092;2022-09-14T07:33:55;98344.28;;;22.42;70.33
23953;BME280;12163;49.316;6.092;2022-09-14T07:36:23;98343.88;;;22.47;70.54
23953;BME280;12163;49.316;6.092;2022-09-14T07:38:51;98357.63;;;22.61;69.93
23953;BME280;12163;49.316;6.092;2022-09-14T07:41:24;98352.91;;;22.72;69.80
23953;BME280;12163;49.316;6.092;2022-09-14T07:43:51;98341.13;;;22.72;69.96
23953;BME280;12163;49.316;6.092;2022-09-14T07:46:18;98339.16;;;22.83;69.95
23953;BME280;12163;49.316;6.092;2022-09-14T07:48:46;98333.66;;;22.93;69.82
23953;BME280;12163;49.316;6.092;2022-09-14T07:51:13;98319.84;;;23.07;70.43
23953;BME280;12163;49.316;6.092;2022-09-14T07:53:41;98320.66;;;23.18;69.89
23953;BME280;12163;49.316;6.092;2022-09-14T07:56:09;98317.88;;;23.32;70.22
23953;BME280;12163;49.316;6.092;2022-09-14T07:58:37;98312.69;;;23.48;70.43
23953;BME280;12163;49.316;6.092;2022-09-14T08:01:09;98298.44;;;23.64;69.89
23953;BME280;12163;49.316;6.092;2022-09-14T08:03:38;98303.91;;;23.74;69.96
23953;BME280;12163;49.316;6.092;2022-09-14T08:06:09;98316.53;;;23.75;69.42
23953;BME280;12163;49.316;6.092;2022-09-14T08:08:40;98328.31;;;23.72;69.20
23953;BME280;12163;49.316;6.092;2022-09-14T08:14:09;98325.19;;;23.70;69.50
23953;BME280;12163;49.316;6.092;2022-09-14T08:16:37;98331.88;;;23.73;69.70
23953;BME280;12163;49.316;6.092;2022-09-14T08:19:07;98344.84;;;23.72;69.84
23953;BME280;12163;49.316;6.092;2022-09-14T08:21:36;98361.00;;;23.70;69.40
23953;BME280;12163;49.316;6.092;2022-09-14T08:24:03;98370.81;;;23.71;69.36
23953;BME280;12163;49.316;6.092;2022-09-14T08:26:30;98384.59;;;23.71;69.04
23953;BME280;12163;49.316;6.092;2022-09-14T08:28:57;98388.16;;;23.72;69.50
23953;BME280;12163;49.316;6.092;2022-09-14T08:31:26;98391.69;;;23.72;69.83
23953;BME280;12163;49.316;6.092;2022-09-14T08:36:22;98388.91;;;23.79;69.70
23953;BME280;12163;49.316;6.092;2022-09-14T08:38:50;98384.97;;;23.80;70.08
23953;BME280;12163;49.316;6.092;2022-09-14T08:41:53;98388.16;;;23.75;70.00
23953;BME280;12163;49.316;6.092;2022-09-14T08:44:56;98375.53;;;23.81;69.97
23953;BME280;12163;49.316;6.092;2022-09-14T08:47:30;98388.09;;;23.93;70.12
23953;BME280;12163;49.316;6.092;2022-09-14T08:52:36;98410.09;;;24.03;69.55
23953;BME280;12163;49.316;6.092;2022-09-14T08:57:58;98401.34;;;24.22;69.45
23953;BME280;12163;49.316;6.092;2022-09-14T09:00:52;98391.91;;;24.16;69.29
23953;BME280;12163;49.316;6.092;2022-09-14T09:03:39;98397.09;;;24.04;70.29
23953;BME280;12163;49.316;6.092;2022-09-14T09:06:17;98393.63;;;23.89;70.49
23953;BME280;12163;49.316;6.092;2022-09-14T09:08:59;98391.69;;;23.79;70.48
23953;BME280;12163;49.316;6.092;2022-09-14T09:11:43;98383.84;;;23.71;70.73
23953;BME280;12163;49.316;6.092;2022-09-14T09:14:26;98385.81;;;23.63;70.98
23953;BME280;12163;49.316;6.092;2022-09-14T09:16:59;98373.22;;;23.62;71.31
23953;BME280;12163;49.316;6.092;2022-09-14T09:19:37;98361.84;;;23.60;72.07
23953;BME280;12163;49.316;6.092;2022-09-14T09:22:12;98357.47;;;23.63;71.75
23953;BME280;12163;49.316;6.092;2022-09-14T09:24:47;98355.91;;;23.65;71.60
23953;BME280;12163;49.316;6.092;2022-09-14T09:27:15;98347.63;;;23.69;71.59
23953;BME280;12163;49.316;6.092;2022-09-14T09:29:42;98352.72;;;23.74;71.86
23953;BME280;12163;49.316;6.092;2022-09-14T09:32:23;98342.91;;;23.73;71.85
23953;BME280;12163;49.316;6.092;2022-09-14T09:34:50;98340.91;;;23.80;71.94
23953;BME280;12163;49.316;6.092;2022-09-14T09:37:21;98337.38;;;23.87;71.83
23953;BME280;12163;49.316;6.092;2022-09-14T09:39:49;98345.59;;;23.90;71.61
23953;BME280;12163;49.316;6.092;2022-09-14T09:45:02;98332.25;;;23.85;71.64
23953;BME280;12163;49.316;6.092;2022-09-14T09:47:33;98334.19;;;23.88;71.68
23953;BME280;12163;49.316;6.092;2022-09-14T09:50:04;98332.19;;;23.92;71.57
23953;BME280;12163;49.316;6.092;2022-09-14T09:52:31;98320.72;;;24.01;71.32
23953;BME280;12163;49.316;6.092;2022-09-14T09:55:00;98320.28;;;24.09;71.32
23953;BME280;12163;49.316;6.092;2022-09-14T09:57:31;98313.97;;;24.12;70.90
23953;BME280;12163;49.316;6.092;2022-09-14T10:02:36;98304.06;;;24.18;70.55
23953;BME280;12163;49.316;6.092;2022-09-14T10:07:49;98296.00;;;24.44;69.78
23953;BME280;12163;49.316;6.092;2022-09-14T10:10:18;98297.81;;;24.68;69.50
23953;BME280;12163;49.316;6.092;2022-09-14T10:12:53;98299.19;;;24.90;69.11
23953;BME280;12163;49.316;6.092;2022-09-14T10:15:29;98294.41;;;24.94;68.79
23953;BME280;12163;49.316;6.092;2022-09-14T10:18:05;98294.47;;;24.91;68.71
23953;BME280;12163;49.316;6.092;2022-09-14T10:20:35;98296.13;;;24.81;68.79
23953;BME280;12163;49.316;6.092;2022-09-14T10:25:44;98295.66;;;24.39;69.81
23953;BME280;12163;49.316;6.092;2022-09-14T10:28:31;98294.59;;;24.26;70.76
23953;BME280;12163;49.316;6.092;2022-09-14T10:33:34;98289.91;;;24.16;71.70
23953;BME280;12163;49.316;6.092;2022-09-14T10:38:39;98289.50;;;24.21;71.52
23953;BME280;12163;49.316;6.092;2022-09-14T10:44:16;98272.75;;;24.49;70.64
23953;BME280;12163;49.316;6.092;2022-09-14T10:52:33;98276.16;;;24.67;70.18
23953;BME280;12163;49.316;6.092;2022-09-14T11:00:18;98263.28;;;24.50;69.80
23953;BME280;12163;49.316;6.092;2022-09-14T11:05:27;98249.66;;;24.76;68.97
23953;BME280;12163;49.316;6.092;2022-09-14T11:08:09;98235.31;;;24.92;68.10
23953;BME280;12163;49.316;6.092;2022-09-14T11:21:54;98228.22;;;25.58;65.24
23953;BME280;12163;49.316;6.092;2022-09-14T11:29:38;98237.50;;;25.71;64.81
23953;BME280;12163;49.316;6.092;2022-09-14T11:32:10;98231.25;;;25.67;64.78
23953;BME280;12163;49.316;6.092;2022-09-14T11:34:54;98234.38;;;25.69;65.28
23953;BME280;12163;49.316;6.092;2022-09-14T11:37:55;98248.66;;;25.64;64.86
23953;BME280;12163;49.316;6.092;2022-09-14T11:40:29;98240.72;;;25.66;65.63
23953;BME280;12163;49.316;6.092;2022-09-14T11:45:36;98236.59;;;25.81;64.78
23953;BME280;12163;49.316;6.092;2022-09-14T11:48:27;98246.06;;;25.80;64.87
23953;BME280;12163;49.316;6.092;2022-09-14T11:51:13;98255.59;;;25.75;64.41
23953;BME280;12163;49.316;6.092;2022-09-14T11:53:41;98251.06;;;25.62;64.68
23953;BME280;12163;49.316;6.092;2022-09-14T11:56:22;98263.81;;;25.52;65.13
23953;BME280;12163;49.316;6.092;2022-09-14T11:59:00;98260.25;;;25.52;64.97
23953;BME280;12163;49.316;6.092;2022-09-14T12:01:35;98260.19;;;25.59;65.22
23953;BME280;12163;49.316;6.092;2022-09-14T12:04:06;98268.78;;;25.64;65.48
23953;BME280;12163;49.316;6.092;2022-09-14T12:09:30;98246.38;;;25.59;64.87
23953;BME280;12163;49.316;6.092;2022-09-14T12:11:57;98244.00;;;25.57;64.84
23953;BME280;12163;49.316;6.092;2022-09-14T12:17:21;98254.34;;;25.50;66.39
23953;BME280;12163;49.316;6.092;2022-09-14T12:20:33;98260.78;;;25.43;65.76
23953;BME280;12163;49.316;6.092;2022-09-14T12:31:28;98257.91;;;26.10;64.13
23953;BME280;12163;49.316;6.092;2022-09-14T12:39:23;98248.88;;;26.55;62.07
23953;BME280;12163;49.316;6.092;2022-09-14T12:44:31;98226.78;;;26.52;61.18
23953;BME280;12163;49.316;6.092;2022-09-14T12:50:19;98217.38;;;26.46;62.02
23953;BME280;12163;49.316;6.092;2022-09-14T12:53:06;98211.19;;;26.38;62.54
23953;BME280;12163;49.316;6.092;2022-09-14T12:55:49;98217.69;;;26.28;62.78
23953;BME280;12163;49.316;6.092;2022-09-14T13:01:14;98210.06;;;26.13;61.42
23953;BME280;12163;49.316;6.092;2022-09-14T13:03:53;98205.28;;;26.13;62.08
23953;BME280;12163;49.316;6.092;2022-09-14T13:06:22;98196.50;;;26.18;61.29
23953;BME280;12163;49.316;6.092;2022-09-14T13:08:53;98198.47;;;26.21;61.31
23953;BME280;12163;49.316;6.092;2022-09-14T13:11:39;98198.81;;;26.23;60.61
23953;BME280;12163;49.316;6.092;2022-09-14T13:14:21;98187.41;;;26.21;60.27
23953;BME280;12163;49.316;6.092;2022-09-14T13:16:50;98187.81;;;26.20;59.63
23953;BME280;12163;49.316;6.092;2022-09-14T13:19:29;98194.94;;;26.17;59.06
23953;BME280;12163;49.316;6.092;2022-09-14T13:21:58;98199.22;;;26.22;59.30
23953;BME280;12163;49.316;6.092;2022-09-14T13:24:46;98196.41;;;26.25;58.27
23953;BME280;12163;49.316;6.092;2022-09-14T13:27:41;98201.75;;;26.36;58.55
23953;BME280;12163;49.316;6.092;2022-09-14T13:32:41;98194.03;;;26.50;57.85
23953;BME280;12163;49.316;6.092;2022-09-14T13:35:37;98188.13;;;26.48;57.64
23953;BME280;12163;49.316;6.092;2022-09-14T13:38:08;98182.97;;;26.50;57.55
23953;BME280;12163;49.316;6.092;2022-09-14T13:40:39;98185.72;;;26.50;57.58
23953;BME280;12163;49.316;6.092;2022-09-14T13:43:06;98182.59;;;26.48;57.54
23953;BME280;12163;49.316;6.092;2022-09-14T13:45:33;98167.56;;;26.49;58.14
23953;BME280;12163;49.316;6.092;2022-09-14T13:48:00;98166.66;;;26.56;57.70
23953;BME280;12163;49.316;6.092;2022-09-14T13:50:27;98161.53;;;26.54;57.11
23953;BME280;12163;49.316;6.092;2022-09-14T13:52:54;98163.59;;;26.50;56.82
23953;BME280;12163;49.316;6.092;2022-09-14T13:58:06;98155.81;;;26.42;57.33
23953;BME280;12163;49.316;6.092;2022-09-14T14:03:40;98169.34;;;26.36;56.95
23953;BME280;12163;49.316;6.092;2022-09-14T14:06:24;98167.56;;;26.26;57.19
23953;BME280;12163;49.316;6.092;2022-09-14T14:08:53;98168.84;;;26.18;57.69
23953;BME280;12163;49.316;6.092;2022-09-14T14:11:27;98161.75;;;26.17;57.78
23953;BME280;12163;49.316;6.092;2022-09-14T14:13:54;98159.47;;;26.12;57.81
23953;BME280;12163;49.316;6.092;2022-09-14T14:16:23;98160.31;;;26.09;57.90
23953;BME280;12163;49.316;6.092;2022-09-14T14:18:54;98160.31;;;26.09;58.31
23953;BME280;12163;49.316;6.092;2022-09-14T14:23:49;98147.47;;;26.22;57.72
23953;BME280;12163;49.316;6.092;2022-09-14T14:26:37;98153.63;;;26.30;57.67
23953;BME280;12163;49.316;6.092;2022-09-14T14:29:07;98133.69;;;26.42;57.51
23953;BME280;12163;49.316;6.092;2022-09-14T14:31:34;98135.78;;;26.57;56.92
23953;BME280;12163;49.316;6.092;2022-09-14T14:34:19;98131.88;;;26.94;56.00
23953;BME280;12163;49.316;6.092;2022-09-14T14:36:46;98127.38;;;27.23;55.23
23953;BME280;12163;49.316;6.092;2022-09-14T14:39:17;98128.28;;;27.52;54.87
23953;BME280;12163;49.316;6.092;2022-09-14T14:41:44;98115.66;;;27.67;53.70
23953;BME280;12163;49.316;6.092;2022-09-14T14:44:15;98136.78;;;27.61;52.91
23953;BME280;12163;49.316;6.092;2022-09-14T14:46:42;98139.28;;;27.55;53.48
23953;BME280;12163;49.316;6.092;2022-09-14T14:49:12;98138.56;;;27.51;52.51
23953;BME280;12163;49.316;6.092;2022-09-14T14:51:39;98127.50;;;27.51;51.59
23953;BME280;12163;49.316;6.092;2022-09-14T14:54:08;98124.59;;;27.90;51.63
23953;BME280;12163;49.316;6.092;2022-09-14T14:56:36;98119.91;;;28.35;49.71
23953;BME280;12163;49.316;6.092;2022-09-14T14:59:35;98121.28;;;28.71;48.59
23953;BME280;12163;49.316;6.092;2022-09-14T15:02:01;98119.94;;;29.33;47.10
23953;BME280;12163;49.316;6.092;2022-09-14T15:04:27;98103.94;;;29.74;45.33
23953;BME280;12163;49.316;6.092;2022-09-14T15:06:54;98107.81;;;30.01;42.19
23953;BME280;12163;49.316;6.092;2022-09-14T15:09:24;98104.34;;;30.22;41.75
23953;BME280;12163;49.316;6.092;2022-09-14T15:11:51;98098.19;;;30.27;41.80
23953;BME280;12163;49.316;6.092;2022-09-14T15:14:21;98099.31;;;30.51;41.21
23953;BME280;12163;49.316;6.092;2022-09-14T15:16:53;98097.56;;;30.79;41.10
23953;BME280;12163;49.316;6.092;2022-09-14T15:19:23;98101.63;;;31.08;40.29
23953;BME280;12163;49.316;6.092;2022-09-14T15:21:50;98105.25;;;30.96;39.62
23953;BME280;12163;49.316;6.092;2022-09-14T15:24:16;98105.69;;;30.95;39.92
23953;BME280;12163;49.316;6.092;2022-09-14T15:26:43;98113.66;;;30.28;38.79
23953;BME280;12163;49.316;6.092;2022-09-14T15:29:10;98110.16;;;29.65;40.41
23953;BME280;12163;49.316;6.092;2022-09-14T15:31:42;98110.53;;;29.14;41.46
23953;BME280;12163;49.316;6.092;2022-09-14T15:34:09;98121.00;;;28.82;41.82
23953;BME280;12163;49.316;6.092;2022-09-14T15:36:43;98118.00;;;28.48;41.89
23953;BME280;12163;49.316;6.092;2022-09-14T15:39:13;98118.44;;;28.75;42.63
23953;BME280;12163;49.316;6.092;2022-09-14T15:41:41;98124.75;;;29.04;41.53
23953;BME280;12163;49.316;6.092;2022-09-14T15:44:07;98117.00;;;28.83;41.65